createdAt,value
2023-01-08T00:20:11.991Z,71.98
2023-01-08T00:48:51.331Z,70.22
2023-01-08T01:17:30.680Z,68.8
2023-01-08T01:46:15.017Z,68.03
2023-01-08T02:14:39.126Z,67.76
2023-01-08T02:43:02.464Z,66.53
2023-01-08T03:11:35.499Z,66.64
2023-01-08T03:40:28.577Z,70.73
2023-01-08T04:09:15.394Z,76.21
2023-01-08T04:38:04.189Z,84.16
2023-01-08T05:06:54.911Z,85.96
2023-01-08T05:35:47.355Z,84.85
2023-01-08T06:04:31.909Z,85.21
2023-01-08T06:33:16.120Z,86.21
2023-01-08T07:02:00.357Z,86.14
2023-01-08T07:30:39.278Z,86.56
2023-01-08T07:59:34.866Z,87.5
2023-01-08T08:28:21.171Z,85.84
2023-01-08T08:57:06.419Z,84.79
2023-01-08T09:25:35.703Z,86.47
2023-01-08T09:54:07.837Z,86.92
2023-01-08T10:22:41.509Z,86.54
2023-01-08T10:51:01.082Z,86.25
2023-01-08T11:19:37.298Z,85.33
2023-01-08T11:48:09.854Z,83.95
2023-01-08T12:16:47.052Z,83.61
2023-01-08T12:45:43.059Z,81.39
2023-01-08T13:14:03.546Z,81.94
2023-01-08T13:42:29.873Z,80.8
2023-01-08T14:11:12.961Z,81.13
2023-01-08T14:39:58.452Z,81.12
2023-01-08T15:08:28.258Z,83.88
2023-01-08T15:36:59.545Z,85.73
2023-01-08T16:05:33.468Z,86
2023-01-08T16:34:02.450Z,86.27
2023-01-08T17:02:37.781Z,87.33
2023-01-08T17:31:04.870Z,87.9
2023-01-08T17:59:33.050Z,88.22
2023-01-08T18:28:09.205Z,88.83
2023-01-08T18:56:39.301Z,90.74
2023-01-08T19:25:09.890Z,94.64
2023-01-08T19:53:43.694Z,97.16
2023-01-08T20:22:15.982Z,95.93
2023-01-08T20:50:56.052Z,94.63
2023-01-08T21:19:38.745Z,94
2023-01-08T21:48:30.080Z,94.47
2023-01-08T22:17:11.946Z,94.98
2023-01-08T22:45:52.543Z,97.37
2023-01-08T23:14:46.407Z,98.66
2023-01-08T23:43:37.721Z,100.58
